Central Colorado Regional Airport


Codes: KAEJ/
Name: Central Colorado Regional Airport
City: Buena Vista
Country: United States
Elevation: 7946 ft.

Photos at Central Colorado Regional Airport


   Photos courtesy of SpottingLog. You can add your own sightings and photos by signing up for a free trial today.



No photos found.

Weather at Central Colorado Regional Airport


Time (UTC)DescriptionTempratureWindCloud coverageVisibilityPressureHumidity
21-Jun-2024 12:00Light Rain11°C4 mph, 100%10000m1031hPa90%
21-Jun-2024 15:00Overcast Clouds13°C4 mph, SW99%10000m1027hPa81%
21-Jun-2024 18:00Broken Clouds19°C7 mph, SW81%10000m1020hPa53%
21-Jun-2024 21:00Light Rain23°C11 mph, SW100%10000m1013hPa38%
22-Jun-2024 00:00Light Rain19°C4 mph, NW96%10000m1014hPa53%
22-Jun-2024 03:00Light Rain14°C4 mph, W100%10000m1019hPa81%
22-Jun-2024 06:00Overcast Clouds14°C7 mph, W95%10000m1020hPa79%
22-Jun-2024 09:00Overcast Clouds12°C7 mph, W99%10000m1020hPa84%
22-Jun-2024 12:00Overcast Clouds11°C7 mph, W100%10000m1022hPa84%
22-Jun-2024 15:00Overcast Clouds18°C4 mph, SW100%10000m1020hPa49%
22-Jun-2024 18:00Broken Clouds24°C4 mph, W84%10000m1017hPa26%
22-Jun-2024 21:00Overcast Clouds20°C9 mph, SW100%10000m1018hPa46%
23-Jun-2024 00:00Broken Clouds24°C7 mph, N68%10000m1014hPa31%
23-Jun-2024 03:00Broken Clouds17°C2 mph, N68%10000m1019hPa54%
23-Jun-2024 06:00Scattered Clouds14°C4 mph, NW42%10000m1022hPa63%
23-Jun-2024 09:00Clear Sky13°C4 mph, W0%10000m1022hPa64%
23-Jun-2024 12:00Few Clouds12°C7 mph, W16%10000m1022hPa62%
23-Jun-2024 15:00Overcast Clouds21°C0 mph, NE100%10000m1019hPa35%
23-Jun-2024 18:00Broken Clouds26°C4 mph, SE75%10000m1016hPa21%
23-Jun-2024 21:00Scattered Clouds28°C4 mph, SE46%10000m1012hPa20%
24-Jun-2024 00:00Broken Clouds26°C4 mph, S72%10000m1010hPa24%
24-Jun-2024 03:00Overcast Clouds19°C2 mph, SW92%10000m1014hPa50%
24-Jun-2024 06:00Overcast Clouds17°C4 mph, NW89%10000m1016hPa52%
24-Jun-2024 09:00Overcast Clouds15°C7 mph, W100%10000m1017hPa57%
24-Jun-2024 12:00Overcast Clouds15°C7 mph, W100%10000m1017hPa56%
24-Jun-2024 15:00Overcast Clouds22°C4 mph, SW99%10000m1015hPa38%
24-Jun-2024 18:00Overcast Clouds27°C4 mph, W93%10000m1011hPa27%
24-Jun-2024 21:00Light Rain26°C2 mph, W86%10000m1010hPa30%
25-Jun-2024 00:00Overcast Clouds25°C2 mph, W87%10000m1009hPa35%
25-Jun-2024 03:00Light Rain17°C7 mph, NW58%10000m1016hPa68%
25-Jun-2024 06:00Broken Clouds14°C4 mph, W77%10000m1018hPa71%
25-Jun-2024 09:00Few Clouds13°C7 mph, W15%10000m1018hPa68%
25-Jun-2024 12:00Clear Sky13°C7 mph, W8%10000m1019hPa62%
25-Jun-2024 15:00Clear Sky22°C2 mph, NE0%10000m1016hPa34%
25-Jun-2024 18:00Few Clouds26°C4 mph, SE12%10000m1014hPa23%
25-Jun-2024 21:00Light Rain21°C7 mph, SW84%10000m1017hPa50%
26-Jun-2024 00:00Light Rain23°C4 mph, E90%10000m1015hPa41%
26-Jun-2024 03:00Light Rain16°C4 mph, NE3%10000m1020hPa68%
26-Jun-2024 06:00Clear Sky14°C2 mph, W2%10000m1022hPa77%
26-Jun-2024 09:00Clear Sky13°C2 mph, W0%10000m1022hPa80%